Time;durP1;ratioP1;P1;durP2;ratioP2;P2;SDS_P1;SDS_P2;PMS_P1;PMS_P2;Temp;Humidity;BMP_temperature;BMP_pressure;BME280_temperature;BME280_humidity;BME280_pressure;Samples;Min_cycle;Max_cycle;Signal;HPM_P1;HPM_P2
2022/01/17 00:00:09;;;;;;;37.75;19.40;;;;;;;1.72;95.54;98935.03;1733006;82;21499;-38
2022/01/17 00:02:36;;;;;;;39.23;17.60;;;;;;;1.74;95.47;98912.51;1732694;83;21004;-38
2022/01/17 00:05:05;;;;;;;34.18;19.35;;;;;;;1.79;95.34;98919.73;1732749;83;20992;-38
2022/01/17 00:07:31;;;;;;;33.10;17.73;;;;;;;1.78;95.29;98921.91;1732895;83;21671;-38
2022/01/17 00:09:58;;;;;;;32.13;17.65;;;;;;;1.78;95.76;98904.21;1732910;82;21540;-38
2022/01/17 00:12:24;;;;;;;29.92;17.52;;;;;;;1.82;95.64;98906.70;1733017;83;20996;-38
2022/01/17 00:14:50;;;;;;;39.95;19.75;;;;;;;1.78;95.58;98918.02;1732692;83;21557;-38
2022/01/17 00:19:45;;;;;;;32.88;19.30;;;;;;;1.73;95.58;98890.09;1732888;83;20964;-38
2022/01/17 00:22:16;;;;;;;34.38;18.07;;;;;;;1.86;95.52;98884.13;1732447;83;20988;-38
2022/01/17 00:24:42;;;;;;;32.35;18.70;;;;;;;1.90;95.31;98875.38;1732785;83;20992;-38
2022/01/17 00:27:08;;;;;;;35.08;19.15;;;;;;;1.94;95.02;98873.09;1732943;83;21043;-38
2022/01/17 00:29:35;;;;;;;38.27;18.50;;;;;;;1.97;94.82;98856.16;1733077;83;20996;-39
2022/01/17 00:32:01;;;;;;;34.08;18.40;;;;;;;2.01;94.82;98855.64;1732696;83;21493;-38
2022/01/17 00:34:28;;;;;;;31.62;18.23;;;;;;;2.01;94.58;98845.27;1732757;83;21505;-38
2022/01/17 00:36:54;;;;;;;38.50;19.62;;;;;;;2.00;94.81;98838.36;1732814;83;21509;-39
2022/01/17 00:39:20;;;;;;;36.53;18.32;;;;;;;1.99;94.63;98844.45;1732855;82;21047;-38
2022/01/17 00:41:45;;;;;;;34.43;19.52;;;;;;;2.01;94.69;98827.11;1732896;82;20995;-38
2022/01/17 00:44:12;;;;;;;35.03;18.02;;;;;;;2.11;94.68;98822.05;1732666;82;20992;-38
2022/01/17 00:46:38;;;;;;;32.60;18.75;;;;;;;2.16;94.59;98811.09;1732791;83;21011;-38
2022/01/17 00:49:04;;;;;;;38.17;20.85;;;;;;;2.15;94.39;98799.46;1732737;83;21024;-38
2022/01/17 00:51:30;;;;;;;36.33;19.85;;;;;;;2.19;94.16;98805.83;1732926;83;21007;-38
2022/01/17 00:53:56;;;;;;;37.00;19.32;;;;;;;2.20;94.26;98807.97;1732779;82;21490;-40
2022/01/17 00:56:23;;;;;;;34.33;19.60;;;;;;;2.20;94.20;98810.56;1733340;82;20996;-38
2022/01/17 00:58:49;;;;;;;34.27;19.57;;;;;;;2.23;93.82;98802.24;1732870;83;21000;-38
2022/01/17 01:01:15;;;;;;;35.65;20.43;;;;;;;2.27;93.82;98815.55;1732705;82;21030;-38
2022/01/17 01:03:42;;;;;;;33.55;19.30;;;;;;;2.31;93.66;98803.34;1732616;82;21008;-39
2022/01/17 01:06:08;;;;;;;37.60;21.23;;;;;;;2.27;93.85;98816.85;1732524;82;21497;-38
2022/01/17 01:08:34;;;;;;;36.40;19.10;;;;;;;2.36;93.84;98814.86;1732854;82;20999;-39
2022/01/17 01:11:00;;;;;;;39.08;21.48;;;;;;;2.25;94.13;98810.83;1732868;82;21041;-39
2022/01/17 01:13:29;;;;;;;36.80;20.75;;;;;;;2.32;94.10;98804.18;1732825;83;21000;-39
2022/01/17 01:29:23;;;;;;;38.60;20.72;;;;;;;2.42;94.04;98779.63;1732807;82;20976;-38
2022/01/17 01:31:54;;;;;;;38.42;20.40;;;;;;;2.33;94.21;98766.52;1732856;83;21053;-39
2022/01/17 01:34:20;;;;;;;36.75;22.13;;;;;;;2.43;94.17;98762.72;1732717;82;21682;-39
2022/01/17 01:36:48;;;;;;;37.38;21.97;;;;;;;2.43;94.02;98762.72;1687292;84;21000;-39
2022/01/17 01:39:17;;;;;;;;;;;;;;;2.47;94.12;98759.59;1735280;82;20961;-38
2022/01/17 01:41:43;;;;;;;36.58;20.92;;;;;;;2.41;93.95;98759.78;1732312;82;20115;-39
2022/01/17 01:44:18;;;;;;;36.93;20.12;;;;;;;2.52;94.00;98751.22;1687413;84;21039;-38
2022/01/17 01:46:47;;;;;;;33.05;18.50;;;;;;;2.49;94.08;98747.41;1731965;82;21008;-38
2022/01/17 01:49:14;;;;;;;38.67;21.25;;;;;;;2.53;93.93;98743.84;1732463;82;21020;-39
2022/01/17 01:51:40;;;;;;;37.42;20.80;;;;;;;2.52;93.87;98735.64;1732929;83;21000;-39
2022/01/17 01:54:07;;;;;;;33.38;19.75;;;;;;;2.47;94.19;98724.12;1732630;83;21047;-39
2022/01/17 01:56:36;;;;;;;33.95;18.92;;;;;;;2.48;94.40;98747.02;1733017;83;20992;-39
2022/01/17 01:59:04;;;;;;;31.55;20.92;;;;;;;2.49;94.24;98727.94;1732827;83;21446;-39
2022/01/17 02:01:30;;;;;;;36.65;20.57;;;;;;;2.53;94.06;98707.50;1732481;83;21004;-39
2022/01/17 02:03:56;;;;;;;32.80;18.92;;;;;;;2.56;93.95;98699.59;1732885;82;20972;-39
2022/01/17 02:06:22;;;;;;;34.25;19.82;;;;;;;2.49;94.12;98695.50;1732598;83;21481;-39
2022/01/17 02:08:48;;;;;;;37.05;20.17;;;;;;;2.52;94.00;98698.47;1732863;82;20964;-39
2022/01/17 02:11:13;;;;;;;31.55;19.65;;;;;;;2.53;93.92;98695.83;1732760;82;20999;-39
2022/01/17 02:13:40;;;;;;;32.00;19.42;;;;;;;2.57;94.12;98690.09;1732803;83;21042;-39
2022/01/17 02:16:14;;;;;;;34.53;20.17;;;;;;;2.55;94.22;98691.43;1732748;82;21003;-38
2022/01/17 02:18:43;;;;;;;29.42;19.12;;;;;;;2.61;94.13;98685.19;1732526;83;21635;-39
2022/01/17 02:21:13;;;;;;;35.90;20.92;;;;;;;2.65;93.90;98686.31;1732909;83;20964;-39
2022/01/17 02:23:39;;;;;;;33.35;19.45;;;;;;;2.66;93.88;98689.78;1732869;82;21028;-39
2022/01/17 02:26:04;;;;;;;;;;;;;;;2.67;93.82;98671.99;1735363;82;21446;-39
2022/01/17 02:28:33;;;;;;;33.88;20.65;;;;;;;2.72;93.53;98677.89;1732825;82;20107;-38
2022/01/17 02:30:57;;;;;;;;;;;;;;;2.71;93.48;98673.61;1735367;82;21407;-39
2022/01/17 02:33:23;;;;;;;27.58;17.07;;;;;;;2.64;93.80;98687.23;1732751;83;20107;-39
2022/01/17 02:35:51;;;;;;;31.73;17.60;;;;;;;2.69;93.98;98678.84;1732763;82;21052;-38
2022/01/17 02:38:17;;;;;;;;;;;;;;;2.66;94.15;98672.45;1735333;83;21011;-39
2022/01/17 02:43:13;;;;;;;29.65;17.65;;;;;;;2.64;94.26;98673.41;1728313;80;21092;-39
2022/01/17 02:48:24;;;;;;;28.32;16.12;;;;;;;2.74;93.91;98650.58;1728014;83;22320;-37
2022/01/17 02:50:50;;;;;;;24.67;16.52;;;;;;;2.72;93.50;98637.64;1729337;82;21031;-37
2022/01/17 02:53:16;;;;;;;32.90;18.75;;;;;;;2.68;93.69;98626.97;1729397;81;21020;-37
2022/01/17 02:55:52;;;;;;;25.23;16.97;;;;;;;2.77;93.62;98630.55;1729389;81;20968;-37
2022/01/17 02:58:20;;;;;;;31.12;17.85;;;;;;;2.80;93.37;98625.69;1729391;81;21552;-38
2022/01/17 03:00:49;;;;;;;26.82;17.45;;;;;;;2.84;93.14;98610.43;1729405;81;21004;-38
2022/01/17 03:03:22;;;;;;;27.52;16.73;;;;;;;2.85;93.09;98605.61;1729408;82;21011;-39
2022/01/17 03:05:52;;;;;;;23.73;15.50;;;;;;;2.86;92.92;98608.63;1729358;82;21521;-38
2022/01/17 03:08:22;;;;;;;26.05;16.60;;;;;;;2.84;92.82;98594.84;1729400;81;21008;-39
2022/01/17 03:10:50;;;;;;;24.40;16.17;;;;;;;2.87;92.64;98588.22;1729326;83;21052;-39
2022/01/17 03:13:25;;;;;;;26.73;16.48;;;;;;;2.93;92.37;98597.55;1729396;82;21552;-39
2022/01/17 03:15:54;;;;;;;26.30;16.93;;;;;;;2.92;92.19;98589.38;1729327;82;20968;-39
2022/01/17 03:18:19;;;;;;;25.50;15.90;;;;;;;2.98;92.01;98585.25;1729181;81;21433;-39
2022/01/17 03:20:45;;;;;;;25.25;16.00;;;;;;;2.98;91.96;98582.19;1729420;82;21135;-39
2022/01/17 03:23:11;;;;;;;24.18;15.10;;;;;;;2.93;91.78;98580.23;1729339;81;21522;-39
2022/01/17 03:25:36;;;;;;;24.50;15.90;;;;;;;2.98;91.65;98582.19;1729312;81;21012;-39
2022/01/17 03:28:03;;;;;;;24.20;15.95;;;;;;;3.06;91.35;98581.48;1729436;82;21012;-39
2022/01/17 03:30:33;;;;;;;23.47;15.03;;;;;;;3.01;91.13;98584.69;1729669;83;21015;-39
2022/01/17 03:32:57;;;;;;;25.97;15.08;;;;;;;3.09;91.10;98584.41;1729389;81;21453;-39
2022/01/17 03:35:23;;;;;;;21.97;14.95;;;;;;;3.09;90.95;98593.50;1729580;81;21043;-39
2022/01/17 03:37:49;;;;;;;21.42;14.13;;;;;;;3.06;90.80;98575.45;1729473;81;21047;-39
2022/01/17 03:40:15;;;;;;;22.52;14.38;;;;;;;3.07;90.75;98601.80;1729630;82;21012;-39
2022/01/17 03:42:41;;;;;;;21.20;13.88;;;;;;;3.10;90.78;98565.79;1717237;82;21570;-39
2022/01/17 03:45:08;;;;;;;21.75;13.78;;;;;;;3.13;90.50;98568.25;1708791;83;21013;-38
2022/01/17 03:47:38;;;;;;;22.58;13.93;;;;;;;3.16;90.41;98566.86;1709131;84;21009;-39
2022/01/17 03:50:09;;;;;;;22.20;14.00;;;;;;;3.20;90.25;98565.40;1708765;83;21048;-39
2022/01/17 03:52:35;;;;;;;23.35;12.75;;;;;;;3.23;90.11;98552.73;1708875;84;21557;-39
2022/01/17 03:55:01;;;;;;;20.08;13.93;;;;;;;3.27;89.87;98549.11;1709031;84;21013;-39
2022/01/17 03:57:27;;;;;;;21.37;13.03;;;;;;;3.19;89.77;98545.97;1709024;84;21039;-39
2022/01/17 03:59:52;;;;;;;21.10;13.98;;;;;;;3.27;89.72;98551.70;1708991;83;21078;-39
2022/01/17 04:02:18;;;;;;;20.30;13.18;;;;;;;3.17;89.67;98538.69;1709009;84;21008;-39
2022/01/17 04:04:44;;;;;;;20.57;12.55;;;;;;;3.20;89.73;98541.14;1708975;84;20982;-39
2022/01/17 04:07:10;;;;;;;19.40;12.90;;;;;;;3.20;89.73;98533.35;1708958;83;21044;-39
2022/01/17 04:09:36;;;;;;;23.80;13.53;;;;;;;3.18;89.54;98524.31;1709091;83;21474;-39
2022/01/17 04:12:02;;;;;;;17.52;12.53;;;;;;;3.26;89.44;98523.58;1709110;84;20997;-39
2022/01/17 04:14:31;;;;;;;23.60;12.33;;;;;;;3.25;89.26;98537.93;1709029;84;21056;-39
2022/01/17 04:16:55;;;;;;;19.20;12.70;;;;;;;3.33;89.24;98506.02;1708769;83;21044;-40
2022/01/17 04:19:21;;;;;;;18.27;11.90;;;;;;;3.20;88.98;98498.27;1709013;83;21478;-39
2022/01/17 04:21:47;;;;;;;19.00;12.47;;;;;;;3.21;89.13;98516.41;1708941;84;21569;-39
2022/01/17 04:24:14;;;;;;;19.45;12.60;;;;;;;3.23;89.15;98499.01;1709045;84;21612;-39
2022/01/17 04:26:42;;;;;;;19.15;12.43;;;;;;;3.17;89.21;98494.05;1709304;83;21052;-39
2022/01/17 04:29:08;;;;;;;20.12;11.88;;;;;;;3.19;89.22;98487.50;1708989;84;21510;-39
2022/01/17 04:31:34;;;;;;;19.85;12.43;;;;;;;3.26;89.06;98475.52;1709015;84;21037;-38
2022/01/17 04:34:00;;;;;;;20.05;12.23;;;;;;;3.26;88.83;98469.48;1708991;84;21035;-40
2022/01/17 04:36:27;;;;;;;17.67;11.90;;;;;;;3.30;88.84;98474.94;1708960;83;21001;-39
2022/01/17 04:38:53;;;;;;;;;;;;;;;3.31;88.45;98464.09;1711640;84;21057;-39
2022/01/17 04:41:21;;;;;;;20.57;12.40;;;;;;;3.26;88.47;98453.89;1708920;84;20109;-39
2022/01/17 04:46:17;;;;;;;21.82;12.18;;;;;;;3.21;88.40;98447.55;1669134;84;20458;-39
2022/01/17 04:48:42;;;;;;;17.65;11.90;;;;;;;3.26;88.47;98438.30;1708939;84;21041;-40
2022/01/17 04:51:08;;;;;;;22.85;11.83;;;;;;;3.18;88.99;98446.83;1709149;84;21040;-39
2022/01/17 04:53:34;;;;;;;16.75;11.97;;;;;;;3.21;89.43;98455.35;1708981;84;21036;-39
2022/01/17 04:56:00;;;;;;;20.17;11.65;;;;;;;3.14;89.50;98449.16;1708961;83;21025;-39
2022/01/17 04:58:26;;;;;;;19.52;11.83;;;;;;;3.14;89.76;98458.25;1708937;84;20993;-39
2022/01/17 05:00:52;;;;;;;19.42;11.70;;;;;;;3.10;90.06;98456.69;1708948;84;21005;-39
2022/01/17 05:03:24;;;;;;;16.27;10.58;;;;;;;3.17;90.10;98437.36;1708914;83;21045;-39
2022/01/17 05:05:50;;;;;;;18.85;12.15;;;;;;;3.22;89.88;98434.97;1708985;84;21481;-39
2022/01/17 05:08:17;;;;;;;17.12;10.90;;;;;;;3.14;90.26;98433.57;1709039;84;21053;-39
2022/01/17 05:10:50;;;;;;;19.70;12.20;;;;;;;3.16;90.39;98425.27;1709272;83;21016;-39
2022/01/17 05:13:17;;;;;;;18.50;11.40;;;;;;;3.16;90.25;98417.47;1708276;84;21032;-39
2022/01/17 05:15:47;;;;;;;17.12;11.08;;;;;;;3.11;90.40;98413.77;1708343;83;21025;-39
2022/01/17 05:20:41;;;;;;;15.85;10.80;;;;;;;3.11;90.23;98402.51;1709037;84;20969;-39
2022/01/17 05:23:08;;;;;;;15.98;10.15;;;;;;;3.13;90.18;98394.20;1708941;84;21492;-39
2022/01/17 05:25:34;;;;;;;19.05;10.72;;;;;;;3.11;90.42;98396.02;1709076;84;21048;-39
2022/01/17 05:28:00;;;;;;;16.52;10.60;;;;;;;3.12;90.23;98389.92;1708938;84;21012;-39
2022/01/17 05:30:27;;;;;;;20.05;10.68;;;;;;;3.19;90.08;98386.18;1708923;84;21009;-39
2022/01/17 05:32:53;;;;;;;16.67;10.23;;;;;;;3.17;89.98;98390.13;1709015;84;21496;-39
2022/01/17 05:35:20;;;;;;;17.42;9.58;;;;;;;3.22;89.84;98376.52;1709028;83;21408;-39
2022/01/17 05:37:49;;;;;;;17.55;10.05;;;;;;;3.21;89.84;98362.28;1709019;83;21005;-39
2022/01/17 05:40:16;;;;;;;15.63;9.88;;;;;;;3.18;89.72;98343.74;1708929;83;21047;-39
2022/01/17 05:42:42;;;;;;;;;;;;;;;3.23;89.61;98357.86;1711434;82;21013;-41
2022/01/17 05:45:10;;;;;;;14.35;9.78;;;;;;;3.25;89.60;98369.03;1708857;84;20514;-39
2022/01/17 05:47:36;;;;;;;18.23;10.80;;;;;;;3.19;89.50;98351.11;1708897;84;20970;-39
2022/01/17 05:50:05;;;;;;;20.48;10.48;;;;;;;3.24;89.39;98335.72;1708898;84;21008;-39
2022/01/17 05:52:32;;;;;;;27.22;12.68;;;;;;;3.23;89.43;98355.27;1708939;84;21553;-39
2022/01/17 05:54:59;;;;;;;22.73;12.00;;;;;;;3.24;89.51;98350.47;1709113;84;21004;-39
2022/01/17 05:57:25;;;;;;;20.52;10.53;;;;;;;3.21;89.56;98348.83;1708999;84;21060;-39
2022/01/17 05:59:52;;;;;;;18.83;10.50;;;;;;;3.24;89.45;98321.89;1709139;83;21001;-39
2022/01/17 06:02:18;;;;;;;20.55;9.30;;;;;;;3.19;89.54;98338.12;1708936;84;21043;-39
2022/01/17 06:04:44;;;;;;;15.70;8.98;;;;;;;3.15;89.43;98333.96;1708930;84;21581;-39
2022/01/17 06:07:10;;;;;;;13.40;8.98;;;;;;;3.28;89.50;98304.42;1708875;83;20989;-39
2022/01/17 06:09:36;;;;;;;16.42;9.23;;;;;;;3.30;89.30;98292.20;1708922;83;21008;-39
2022/01/17 06:12:03;;;;;;;13.78;8.88;;;;;;;3.28;89.27;98303.95;1708876;84;21008;-39
2022/01/17 06:14:30;;;;;;;17.30;8.65;;;;;;;3.35;89.14;98323.59;1709030;83;21046;-39
2022/01/17 06:16:56;;;;;;;14.33;9.23;;;;;;;3.28;89.04;98288.83;1709001;84;21463;-39
2022/01/17 06:19:22;;;;;;;12.55;8.50;;;;;;;3.27;89.15;98269.78;1708962;84;21000;-40
2022/01/17 06:21:48;;;;;;;15.43;10.10;;;;;;;3.29;89.11;98278.34;1708881;84;21049;-39
2022/01/17 06:24:14;;;;;;;14.50;8.53;;;;;;;3.31;89.12;98262.27;1708845;84;21024;-39
2022/01/17 06:26:42;;;;;;;15.32;9.15;;;;;;;3.35;88.86;98269.02;1708870;84;21040;-39
2022/01/17 06:29:12;;;;;;;16.37;8.85;;;;;;;3.37;88.55;98252.90;1709005;84;21056;-39
2022/01/17 06:31:39;;;;;;;17.20;8.80;;;;;;;3.36;88.97;98250.36;1708964;83;21009;-39
2022/01/17 06:34:06;;;;;;;15.58;9.13;;;;;;;3.37;88.81;98225.61;1708915;83;21056;-39
2022/01/17 06:36:32;;;;;;;16.82;9.15;;;;;;;3.34;88.80;98224.44;1708904;84;21064;-39
2022/01/17 06:38:58;;;;;;;14.73;8.43;;;;;;;3.28;89.25;98205.69;1708886;83;21013;-39
2022/01/17 06:41:24;;;;;;;15.18;8.48;;;;;;;3.30;89.10;98208.59;1708867;83;21556;-39
2022/01/17 06:43:50;;;;;;;15.15;9.25;;;;;;;3.34;89.11;98190.66;1708847;82;21525;-39
2022/01/17 06:46:16;;;;;;;14.98;8.85;;;;;;;3.26;89.43;98210.48;1708856;84;21004;-42
2022/01/17 06:48:43;;;;;;;12.33;7.97;;;;;;;3.26;89.28;98181.06;1708892;83;21012;-39
2022/01/17 06:51:09;;;;;;;12.43;7.80;;;;;;;3.27;89.32;98174.94;1709028;84;21451;-39
2022/01/17 06:53:35;;;;;;;14.55;7.28;;;;;;;3.26;89.40;98184.50;1708857;84;21013;-39
2022/01/17 06:56:01;;;;;;;13.70;6.80;;;;;;;3.29;89.09;98162.72;1708879;84;21048;-40
2022/01/17 06:58:27;;;;;;;11.57;7.72;;;;;;;3.20;88.97;98161.39;1708462;84;21073;-39
2022/01/17 07:00:54;;;;;;;12.58;6.87;;;;;;;3.26;88.91;98147.28;1708880;84;21011;-39
2022/01/17 07:03:21;;;;;;;13.13;6.07;;;;;;;3.27;88.87;98141.16;1709155;84;21505;-39
2022/01/17 07:05:46;;;;;;;11.73;5.85;;;;;;;3.25;88.55;98145.59;1708868;84;20986;-39
2022/01/17 07:08:12;;;;;;;9.53;6.05;;;;;;;3.31;88.53;98141.44;1708862;84;21057;-39
2022/01/17 07:10:38;;;;;;;11.55;5.83;;;;;;;3.31;88.31;98176.52;1708968;83;21012;-39
2022/01/17 07:13:04;;;;;;;12.65;6.28;;;;;;;3.34;87.78;98159.47;1708873;84;21052;-39
2022/01/17 07:15:30;;;;;;;10.90;5.80;;;;;;;3.41;87.51;98193.38;1708862;83;21116;-39
2022/01/17 07:17:55;;;;;;;10.38;5.47;;;;;;;3.40;87.56;98177.41;1708852;84;21049;-39
2022/01/17 07:20:22;;;;;;;12.58;5.67;;;;;;;3.38;87.25;98193.96;1708866;84;21024;-38
2022/01/17 07:22:48;;;;;;;11.25;5.60;;;;;;;3.41;86.93;98266.14;1708836;83;21059;-39
2022/01/17 07:25:13;;;;;;;9.13;4.75;;;;;;;3.49;86.61;98170.94;1708824;84;21097;-39
2022/01/17 07:27:42;;;;;;;9.95;4.90;;;;;;;3.46;86.54;98153.73;1708968;84;21546;-39
2022/01/17 07:30:10;;;;;;;10.63;4.92;;;;;;;3.52;86.95;98134.88;1708948;83;21017;-39
2022/01/17 07:32:37;;;;;;;;;;;;;;;3.48;87.17;98109.95;1711437;84;21044;-39
2022/01/17 07:35:05;;;;;;;20.15;10.08;;;;;;;3.30;87.60;98117.65;1708992;84;20402;-39
2022/01/17 07:37:31;;;;;;;8.08;4.55;;;;;;;3.25;88.46;98083.23;1708815;84;21434;-38
2022/01/17 07:39:57;;;;;;;11.68;5.20;;;;;;;3.18;89.05;98064.47;1708926;83;21573;-39
2022/01/17 07:42:24;;;;;;;8.20;4.30;;;;;;;3.21;89.16;98077.33;1708841;83;21012;-39
2022/01/17 07:44:54;;;;;;;14.45;4.25;;;;;;;3.19;89.08;98059.67;1708931;84;21016;-39
2022/01/17 07:47:24;;;;;;;;;;;;;;;3.25;88.78;98066.34;1710961;83;21533;-39
2022/01/17 07:49:45;;;;;;;10.53;4.30;;;;;;;3.13;89.41;98077.28;1708090;83;20109;-38
2022/01/17 07:52:12;;;;;;;14.87;5.30;;;;;;;3.21;89.10;98075.19;1708828;84;21044;-39
2022/01/17 07:54:43;;;;;;;10.98;4.83;;;;;;;3.22;89.16;98053.48;1708968;84;21471;-39
2022/01/17 07:57:05;;;;;;;8.53;4.35;;;;;;;3.22;89.10;98043.09;1708283;83;21025;-38
2022/01/17 07:59:31;;;;;;;13.22;4.45;;;;;;;3.26;88.82;98031.67;1708848;83;21005;-39
2022/01/17 08:01:57;;;;;;;12.20;4.37;;;;;;;3.24;88.71;98028.30;1708839;84;21016;-38
2022/01/17 08:04:23;;;;;;;8.48;3.70;;;;;;;3.30;88.80;98042.30;1709053;83;21024;-39
2022/01/17 08:06:51;;;;;;;12.18;4.60;;;;;;;3.24;88.90;97984.13;1708824;84;21024;-39
2022/01/17 08:09:25;;;;;;;8.33;3.75;;;;;;;3.24;88.90;97984.13;1708839;84;21061;-38
2022/01/17 08:11:51;;;;;;;8.30;4.35;;;;;;;3.25;89.04;98016.98;1708785;84;21012;-38
2022/01/17 08:14:17;;;;;;;9.78;4.28;;;;;;;3.18;89.37;97986.53;1701603;84;20963;-38
2022/01/17 08:16:43;;;;;;;9.00;3.83;;;;;;;3.20;89.64;97978.67;1698882;84;21010;-39
2022/01/17 08:19:10;;;;;;;6.83;3.77;;;;;;;3.22;89.71;97978.14;1698835;83;21499;-39
2022/01/17 08:21:36;;;;;;;9.08;4.25;;;;;;;3.19;89.92;97964.02;1698626;84;21098;-38
2022/01/17 08:24:01;;;;;;;4.67;3.05;;;;;;;3.14;90.40;97988.06;1697810;84;21007;-38
2022/01/17 08:26:28;;;;;;;8.68;3.75;;;;;;;3.15;90.41;97989.76;1697837;84;21111;-40
2022/01/17 08:28:54;;;;;;;6.95;2.87;;;;;;;3.19;90.41;98010.77;1699063;84;21062;-38
2022/01/17 08:31:20;;;;;;;13.60;3.20;;;;;;;3.10;91.08;98007.30;1699104;84;21046;-38
2022/01/17 08:33:46;;;;;;;6.75;3.00;;;;;;;3.15;91.04;97962.02;1699096;84;21038;-38
2022/01/17 08:36:12;;;;;;;8.13;4.47;;;;;;;3.20;91.14;98007.25;1699063;84;21054;-39
2022/01/17 08:38:39;;;;;;;10.40;3.95;;;;;;;3.11;91.33;97966.11;1699294;83;21042;-38
2022/01/17 08:41:05;;;;;;;;;;;;;;;3.14;91.54;97950.39;1701818;83;21047;-38
2022/01/17 08:43:31;;;;;;;7.17;3.83;;;;;;;3.05;91.89;97939.97;1710529;83;20125;-38
2022/01/17 08:45:57;;;;;;;7.80;3.80;;;;;;;3.13;91.64;97948.27;1732776;82;20984;-38
2022/01/17 08:48:23;;;;;;;6.95;3.22;;;;;;;3.07;92.05;97938.14;1732790;82;21016;-38
2022/01/17 08:50:50;;;;;;;8.70;2.70;;;;;;;3.07;92.22;97937.70;1733026;82;21549;-38
2022/01/17 08:53:17;;;;;;;4.25;2.95;;;;;;;3.05;92.40;97939.50;1732992;82;21016;-38
2022/01/17 08:55:45;;;;;;;7.92;3.47;;;;;;;3.06;92.78;97899.64;1733052;83;21047;-38
2022/01/17 08:58:13;;;;;;;6.03;3.75;;;;;;;3.01;93.19;97899.48;1732786;83;21015;-39
2022/01/17 09:00:40;;;;;;;5.67;3.20;;;;;;;3.03;93.62;97910.17;1732798;83;21034;-39
2022/01/17 09:03:07;;;;;;;3.00;2.70;;;;;;;3.01;93.81;97913.77;1733086;82;20980;-39
2022/01/17 09:05:34;;;;;;;8.15;3.00;;;;;;;3.02;93.85;97876.47;1732748;81;20984;-39
2022/01/17 09:08:02;;;;;;;12.63;2.67;;;;;;;3.03;93.71;97896.34;1733002;82;21465;-39
2022/01/17 09:10:28;;;;;;;6.87;3.08;;;;;;;3.03;94.04;97907.57;1732811;83;20984;-39
2022/01/17 09:12:56;;;;;;;7.28;2.80;;;;;;;2.97;94.28;97897.95;1732761;83;20998;-39
2022/01/17 09:15:24;;;;;;;7.78;2.98;;;;;;;2.96;94.42;97898.38;1732967;83;21007;-39
2022/01/17 09:17:49;;;;;;;5.05;2.72;;;;;;;2.94;94.81;97902.81;1732906;83;21012;-39
2022/01/17 09:20:16;;;;;;;3.72;2.47;;;;;;;2.92;95.58;97886.92;1732793;82;21004;-39
2022/01/17 09:22:42;;;;;;;6.40;4.28;;;;;;;2.94;95.17;97887.23;1732741;81;21008;-39
2022/01/17 09:25:09;;;;;;;8.43;2.65;;;;;;;2.93;95.57;97889.89;1732784;83;21501;-39
2022/01/17 09:27:36;;;;;;;6.05;2.45;;;;;;;2.97;95.49;97901.84;1732866;82;21043;-38
2022/01/17 09:30:10;;;;;;;4.00;2.15;;;;;;;2.83;95.54;97850.08;1732973;83;21540;-39
2022/01/17 09:32:37;;;;;;;4.30;2.42;;;;;;;2.89;96.01;97867.13;1732788;82;21004;-38
2022/01/17 09:35:05;;;;;;;4.40;2.15;;;;;;;2.95;95.97;97859.06;1732952;83;20980;-38
2022/01/17 09:37:33;;;;;;;4.33;2.25;;;;;;;2.83;96.67;97854.44;1732773;82;21803;-38
2022/01/17 09:39:58;;;;;;;;;;;;;;;2.92;96.72;97850.11;1735355;83;21000;-39
2022/01/17 09:42:24;;;;;;;5.47;2.92;;;;;;;2.95;96.42;97842.19;1732712;82;20129;-38
2022/01/17 09:44:51;;;;;;;3.17;2.05;;;;;;;2.95;96.57;97841.32;1726042;82;21160;-38
2022/01/17 09:47:18;;;;;;;3.35;1.30;;;;;;;3.00;96.47;98121.13;1724329;83;20996;-38
2022/01/17 09:49:54;;;;;;;4.17;1.10;;;;;;;2.28;93.46;98164.75;1724497;83;21505;-39
2022/01/17 09:55:21;;;;;;;2.80;0.90;;;;;;;0.14;100.00;98166.28;1724162;83;20957;-39
2022/01/17 09:58:09;;;;;;;1.20;0.95;;;;;;;-0.53;100.00;98186.76;1724322;83;21012;-39
2022/01/17 10:00:42;;;;;;;4.50;2.67;;;;;;;-0.65;100.00;98193.58;1724243;83;20981;-43
2022/01/17 10:03:16;;;;;;;2.37;1.32;;;;;;;-0.96;100.00;98202.15;1724204;83;21018;-39
2022/01/17 10:05:43;;;;;;;3.52;2.00;;;;;;;-0.82;100.00;98222.41;1724164;83;21023;-38
2022/01/17 10:08:11;;;;;;;2.65;1.27;;;;;;;-0.89;100.00;98246.27;1724179;83;21056;-38
2022/01/17 10:10:56;;;;;;;2.47;1.52;;;;;;;-1.00;100.00;98243.09;1724215;83;20995;-39
2022/01/17 10:13:29;;;;;;;2.92;1.70;;;;;;;-0.99;100.00;98239.63;1723572;83;21004;-39
2022/01/17 10:16:19;;;;;;;1.90;1.40;;;;;;;-1.05;100.00;98248.83;1724266;83;21544;-38
2022/01/17 10:19:01;;;;;;;4.58;1.98;;;;;;;-1.02;100.00;98240.99;1724191;82;21032;-40
2022/01/17 10:21:47;;;;;;;3.25;1.80;;;;;;;-1.02;100.00;98219.93;1724194;83;21008;-40
2022/01/17 10:27:07;;;;;;;3.10;1.45;;;;;;;-0.94;100.00;98194.37;1724216;82;21107;-40
2022/01/17 10:35:18;;;;;;;2.62;1.17;;;;;;;-0.85;100.00;98205.28;1723116;83;21072;-41
2022/01/17 10:38:09;;;;;;;4.40;1.98;;;;;;;-0.87;100.00;98224.30;1721507;83;21087;-41
2022/01/17 10:40:53;;;;;;;4.83;1.82;;;;;;;-0.78;100.00;98229.21;1722650;82;21103;-43
2022/01/17 10:43:35;;;;;;;4.50;2.22;;;;;;;-0.72;100.00;98228.20;1724066;82;21009;-40
2022/01/17 10:46:06;;;;;;;4.47;2.20;;;;;;;-0.81;100.00;98227.54;1723733;83;21052;-41
2022/01/17 10:48:43;;;;;;;8.85;4.67;;;;;;;-0.80;100.00;98247.73;1723480;83;21020;-40
2022/01/17 10:51:11;;;;;;;6.20;3.35;;;;;;;-0.74;100.00;98249.34;1723505;82;21000;-42
2022/01/17 10:53:40;;;;;;;12.33;5.22;;;;;;;-0.80;100.00;98221.50;1724225;83;21532;-44
2022/01/17 10:56:10;;;;;;;10.38;4.53;;;;;;;-0.80;100.00;98191.81;1724192;83;21016;-43
2022/01/17 10:58:39;;;;;;;12.70;4.65;;;;;;;-0.68;100.00;98220.31;1722955;81;21107;-41
2022/01/17 11:01:13;;;;;;;7.30;3.85;;;;;;;-0.63;100.00;98229.23;1724204;83;21430;-40
2022/01/17 11:03:42;;;;;;;11.33;4.17;;;;;;;-0.63;100.00;98248.61;1724157;83;21399;-41
2022/01/17 11:06:13;;;;;;;7.60;2.80;;;;;;;-0.54;100.00;98273.34;1724126;82;21493;-42
2022/01/17 11:08:40;;;;;;;6.03;2.65;;;;;;;-0.59;100.00;98287.65;1722929;83;21124;-40
2022/01/17 11:11:10;;;;;;;4.53;2.40;;;;;;;-0.57;99.87;98276.83;1724183;82;21060;-39
2022/01/17 11:13:42;;;;;;;3.70;2.27;;;;;;;-0.43;99.53;98267.43;1722772;83;21040;-39
2022/01/17 11:16:11;;;;;;;7.35;2.85;;;;;;;-0.51;99.31;98254.73;1723799;82;21045;-39
2022/01/17 11:18:36;;;;;;;10.93;3.45;;;;;;;-0.53;98.68;98273.27;1707960;83;21006;-40
2022/01/17 11:21:17;;;;;;;10.63;3.77;;;;;;;-0.42;99.16;98276.44;1705837;83;21043;-40
2022/01/17 11:23:46;;;;;;;16.10;6.17;;;;;;;-0.44;98.94;98272.18;1717019;83;21046;-39
2022/01/17 11:26:13;;;;;;;13.38;5.05;;;;;;;-0.45;97.95;98279.09;1717698;83;21075;-39
2022/01/17 11:28:39;;;;;;;;;;;;;;;-0.48;98.19;98262.83;1719823;82;21030;-39
2022/01/17 11:31:12;;;;;;;7.60;3.02;;;;;;;-0.55;96.46;98275.05;1718612;83;20427;-39
2022/01/17 11:33:37;;;;;;;7.80;3.02;;;;;;;-0.41;95.25;98269.07;1717279;83;21083;-39
2022/01/17 11:36:05;;;;;;;7.05;2.20;;;;;;;-0.40;93.56;98294.45;1717319;83;21063;-39
2022/01/17 11:38:36;;;;;;;;;;;;;;;-0.16;93.15;98314.91;1720916;82;21516;-39
2022/01/17 11:41:04;;;;;;;4.55;2.17;;;;;;;-0.21;92.09;98324.52;1718478;83;20148;-40
2022/01/17 11:43:37;;;;;;;4.30;1.60;;;;;;;-0.23;94.32;98296.14;1717601;83;21039;-39
2022/01/17 11:46:25;;;;;;;5.58;2.00;;;;;;;-0.23;93.15;98315.52;1717736;83;21062;-38
2022/01/17 11:49:09;;;;;;;3.02;1.80;;;;;;;-0.22;92.91;98325.40;1717907;83;21047;-38
2022/01/17 11:51:46;;;;;;;6.12;2.83;;;;;;;-0.25;92.40;98333.25;1718738;83;21027;-39
2022/01/17 11:54:27;;;;;;;5.53;1.70;;;;;;;-0.23;93.82;98346.98;1718297;83;21480;-38
2022/01/17 11:57:02;;;;;;;4.60;1.92;;;;;;;-0.24;92.21;98341.39;1718614;83;21062;-38
2022/01/17 11:59:41;;;;;;;3.83;1.82;;;;;;;-0.21;91.69;98351.66;1718526;83;21007;-38
2022/01/17 12:02:24;;;;;;;4.40;1.90;;;;;;;-0.17;91.29;98352.42;1718605;83;20987;-37
2022/01/17 12:05:11;;;;;;;3.22;1.40;;;;;;;-0.17;90.26;98373.93;1718700;83;21047;-38
2022/01/17 12:07:44;;;;;;;6.12;2.90;;;;;;;-0.15;88.47;98377.32;1718624;83;21019;-37
2022/01/17 12:10:14;;;;;;;5.15;1.87;;;;;;;-0.17;87.68;98399.77;1718583;83;21545;-37
2022/01/17 12:12:41;;;;;;;4.35;1.80;;;;;;;-0.11;84.95;98416.43;1718531;83;21046;-38
2022/01/17 12:15:16;;;;;;;;;;;;;;;-0.11;85.08;98429.35;1721236;83;21030;-38